Time;durP1;ratioP1;P1;durP2;ratioP2;P2;SDS_P1;SDS_P2;PMS_P1;PMS_P2;Temp;Humidity;BMP_temperature;BMP_pressure;BME280_temperature;BME280_humidity;BME280_pressure;Samples;Min_cycle;Max_cycle;Signal;HPM_P1;HPM_P2
2024/02/08 00:02:08;;;;;;;8.95;4.53;;;;;;;3.13;100.00;91895.28;4813966;29;20068;-79
2024/02/08 00:04:35;;;;;;;9.15;4.22;;;;;;;3.10;100.00;91885.44;4813221;29;20060;-79
2024/02/08 00:07:01;;;;;;;8.77;4.60;;;;;;;3.10;100.00;91891.38;4814425;29;20055;-78
2024/02/08 00:09:26;;;;;;;7.35;4.28;;;;;;;3.04;100.00;91883.88;4814860;29;20038;-78
2024/02/08 00:11:52;;;;;;;10.00;4.43;;;;;;;3.06;100.00;91890.38;4812752;29;20045;-79
2024/02/08 00:14:17;;;;;;;7.95;4.63;;;;;;;3.05;100.00;91883.63;4813052;29;20054;-80
2024/02/08 00:16:43;;;;;;;7.68;4.43;;;;;;;2.96;100.00;91874.81;4796423;29;20545;-79
2024/02/08 00:19:08;;;;;;;8.82;4.50;;;;;;;3.06;100.00;91884.38;4813467;29;20046;-79
2024/02/08 00:21:37;;;;;;;7.55;4.22;;;;;;;3.02;100.00;91881.56;4815677;29;20043;-79
2024/02/08 00:24:03;;;;;;;7.60;4.47;;;;;;;3.00;100.00;91880.25;4816036;29;20066;-79
2024/02/08 00:26:28;;;;;;;7.45;4.70;;;;;;;3.03;100.00;91887.50;4815327;29;20132;-80
2024/02/08 00:28:54;;;;;;;7.28;5.13;;;;;;;3.01;100.00;91887.75;4812917;29;20051;-80
2024/02/08 00:31:19;;;;;;;7.72;4.30;;;;;;;3.03;100.00;91890.84;4813815;29;20057;-79
2024/02/08 00:33:48;;;;;;;8.43;4.93;;;;;;;2.91;100.00;91869.63;4809949;29;20107;-80
2024/02/08 00:36:15;;;;;;;9.18;5.07;;;;;;;3.03;100.00;91888.25;4809645;29;20539;-80
2024/02/08 00:38:43;;;;;;;11.68;4.50;;;;;;;2.99;100.00;91882.03;4811478;29;20064;-79
2024/02/08 00:41:09;;;;;;;8.02;4.85;;;;;;;3.04;100.00;91892.41;4796255;29;20107;-79
2024/02/08 00:43:39;;;;;;;12.18;5.10;;;;;;;3.02;100.00;91889.31;4811484;29;20403;-79
2024/02/08 00:46:07;;;;;;;6.68;4.60;;;;;;;3.03;100.00;91880.50;4812035;29;20046;-79
2024/02/08 00:48:33;;;;;;;8.60;4.60;;;;;;;3.02;100.00;91878.97;4812629;29;20454;-80
2024/02/08 00:50:59;;;;;;;9.98;5.25;;;;;;;3.06;100.00;91874.03;4810721;29;20114;-80
2024/02/08 00:53:24;;;;;;;6.95;4.60;;;;;;;3.05;100.00;91873.28;4810974;29;20051;-80
2024/02/08 00:55:50;;;;;;;8.65;4.60;;;;;;;3.07;100.00;91878.97;4811988;29;20030;-79
2024/02/08 00:58:16;;;;;;;9.75;5.03;;;;;;;3.08;100.00;91877.94;4811755;29;20074;-79
2024/02/08 01:00:42;;;;;;;7.88;4.60;;;;;;;3.09;100.00;91868.38;4811065;29;20046;-80
2024/02/08 01:03:08;;;;;;;8.85;5.00;;;;;;;3.09;100.00;91869.16;4794122;29;20046;-80
2024/02/08 01:05:34;;;;;;;8.13;4.75;;;;;;;3.06;100.00;91869.69;4811574;29;20046;-80
2024/02/08 01:08:00;;;;;;;7.95;4.90;;;;;;;3.05;100.00;91868.09;4812901;29;20074;-79
2024/02/08 01:10:27;;;;;;;8.68;5.10;;;;;;;3.03;100.00;91864.22;4810564;29;20045;-80
2024/02/08 01:12:54;;;;;;;9.90;5.07;;;;;;;3.06;100.00;91868.88;4811340;29;20141;-80
2024/02/08 01:15:20;;;;;;;8.85;4.70;;;;;;;3.02;100.00;91860.09;4796608;29;20204;-80
2024/02/08 01:17:48;;;;;;;7.57;4.65;;;;;;;3.02;100.00;91860.88;4813384;29;20042;-81
2024/02/08 01:20:21;;;;;;;10.85;5.20;;;;;;;2.92;100.00;91853.84;4812923;29;20275;-79
2024/02/08 01:22:48;;;;;;;9.75;4.57;;;;;;;3.01;100.00;91872.22;4798489;29;20043;-80
2024/02/08 01:25:14;;;;;;;8.10;4.63;;;;;;;2.96;100.00;91859.28;4811426;29;20103;-80
2024/02/08 01:27:40;;;;;;;9.27;5.38;;;;;;;3.00;100.00;91864.75;4811418;29;20401;-81
2024/02/08 01:30:07;;;;;;;9.40;5.30;;;;;;;2.99;100.00;91863.16;4808948;29;20047;-80
2024/02/08 01:32:33;;;;;;;10.13;4.93;;;;;;;2.98;100.00;91865.00;4803963;29;20046;-81
2024/02/08 01:34:59;;;;;;;14.82;5.50;;;;;;;2.96;100.00;91861.09;4812803;29;20039;-80
2024/02/08 01:37:25;;;;;;;8.23;4.75;;;;;;;2.94;100.00;91856.19;4813101;29;20043;-80
2024/02/08 01:39:50;;;;;;;9.38;4.65;;;;;;;2.90;100.00;91853.34;4813700;29;20043;-79
2024/02/08 01:42:16;;;;;;;8.55;4.80;;;;;;;2.91;100.00;91861.88;4812044;29;20519;-80
2024/02/08 01:44:45;;;;;;;8.55;5.07;;;;;;;2.87;100.00;91853.84;4812440;29;20027;-80
2024/02/08 01:47:12;;;;;;;8.48;5.03;;;;;;;2.89;100.00;91853.59;4810859;29;20045;-80
2024/02/08 01:49:38;;;;;;;9.77;4.88;;;;;;;2.87;100.00;91845.31;4810915;29;20039;-80
2024/02/08 01:52:04;;;;;;;8.32;5.15;;;;;;;2.86;100.00;91851.50;4816584;29;20068;-80
2024/02/08 01:54:30;;;;;;;9.52;5.18;;;;;;;2.82;100.00;91858.22;4815791;29;20047;-80
2024/02/08 01:57:03;;;;;;;9.20;5.30;;;;;;;2.79;100.00;91854.34;4816438;29;20045;-79
2024/02/08 01:59:31;;;;;;;13.63;5.47;;;;;;;2.77;100.00;91846.06;4812004;29;20184;-79
2024/02/08 02:02:01;;;;;;;10.10;5.80;;;;;;;2.78;100.00;91854.59;4812024;29;20587;-81
2024/02/08 02:04:30;;;;;;;9.48;5.32;;;;;;;2.78;100.00;91854.59;4809607;29;20095;-79
2024/02/08 02:07:00;;;;;;;13.77;5.65;;;;;;;2.76;100.00;91843.72;4811676;29;20042;-79
2024/02/08 02:09:30;;;;;;;9.80;5.50;;;;;;;2.71;100.00;91836.72;4802699;29;20077;-80
2024/02/08 02:12:12;;;;;;;8.35;5.85;;;;;;;2.73;100.00;91836.47;4810900;29;20050;-80
2024/02/08 02:14:41;;;;;;;;;;;;;;;2.73;100.00;91833.91;4810892;29;20477;-81
2024/02/08 02:17:19;;;;;;;7.75;4.88;;;;;;;2.73;100.00;91831.31;4811204;29;20079;-80
2024/02/08 02:19:46;;;;;;;11.52;5.47;;;;;;;2.72;100.00;91820.19;4809995;29;20511;-81
2024/02/08 02:22:13;;;;;;;9.82;5.97;;;;;;;2.73;100.00;91813.22;4808853;29;20047;-79
2024/02/08 02:24:40;;;;;;;9.57;5.78;;;;;;;2.72;100.00;91802.09;4812425;29;20027;-80
2024/02/08 02:27:08;;;;;;;10.27;5.93;;;;;;;2.71;100.00;91808.28;4810092;29;20512;-80
2024/02/08 02:29:36;;;;;;;9.95;5.88;;;;;;;2.67;100.00;91805.44;4809832;29;20042;-79
2024/02/08 02:32:05;;;;;;;9.90;5.40;;;;;;;2.68;100.00;91801.06;4811167;29;20055;-79
2024/02/08 02:34:30;;;;;;;8.82;5.63;;;;;;;2.67;100.00;91802.84;4809765;29;20105;-76
2024/02/08 02:36:59;;;;;;;10.60;5.95;;;;;;;2.66;100.00;91809.06;4795578;29;20046;-81
2024/02/08 02:39:26;;;;;;;12.73;6.60;;;;;;;2.61;100.00;91800.50;4811704;29;20043;-80
2024/02/08 02:41:56;;;;;;;13.68;6.32;;;;;;;2.63;100.00;91796.63;4814488;29;20069;-80
2024/02/08 02:44:22;;;;;;;10.23;5.80;;;;;;;2.61;100.00;91796.13;4815663;29;20046;-79
2024/02/08 02:46:49;;;;;;;12.65;6.20;;;;;;;2.60;100.00;91783.44;4807779;29;20087;-80
2024/02/08 02:49:17;;;;;;;9.52;5.75;;;;;;;2.54;100.00;91781.88;4815104;29;20070;-81
2024/02/08 02:51:48;;;;;;;11.70;6.15;;;;;;;2.58;100.00;91801.00;4815257;29;20057;-80
2024/02/08 02:54:16;;;;;;;10.07;5.78;;;;;;;2.54;100.00;91787.81;4813247;29;20455;-79
2024/02/08 02:56:50;;;;;;;10.90;5.90;;;;;;;2.55;100.00;91797.13;4798797;29;20034;-80
2024/02/08 02:59:20;;;;;;;10.95;6.20;;;;;;;2.55;100.00;91802.31;4813675;29;20047;-79
2024/02/08 03:01:49;;;;;;;9.57;5.90;;;;;;;2.52;100.00;91787.28;4815142;29;20054;-81
2024/02/08 03:04:16;;;;;;;10.15;5.88;;;;;;;2.54;100.00;91794.78;4797919;29;20039;-79
2024/02/08 03:06:52;;;;;;;13.15;6.25;;;;;;;2.51;100.00;91793.50;4813860;29;20045;-79
2024/02/08 03:09:27;;;;;;;9.48;5.28;;;;;;;2.51;100.00;91796.09;4808771;29;20050;-80
2024/02/08 03:11:53;;;;;;;10.02;5.55;;;;;;;2.51;100.00;91798.66;4807292;29;20035;-81
2024/02/08 03:14:19;;;;;;;13.10;5.63;;;;;;;2.50;100.00;91792.72;4813994;29;20045;-80
2024/02/08 03:16:47;;;;;;;10.65;5.50;;;;;;;2.52;100.00;91794.28;4812357;29;20515;-80
2024/02/08 03:19:13;;;;;;;9.02;5.93;;;;;;;2.54;100.00;91789.63;4814304;29;20046;-80
2024/02/08 03:21:40;;;;;;;9.70;6.20;;;;;;;2.52;100.00;91795.03;4814275;29;20031;-80
2024/02/08 03:24:09;;;;;;;11.75;6.40;;;;;;;2.47;100.00;91789.88;4813225;29;20066;-79
2024/02/08 03:26:46;;;;;;;12.98;6.13;;;;;;;2.49;100.00;91787.81;4813428;29;20427;-80
2024/02/08 03:29:13;;;;;;;8.82;6.05;;;;;;;2.48;100.00;91788.84;4812870;29;20096;-80
2024/02/08 03:31:46;;;;;;;9.43;6.53;;;;;;;2.51;100.00;91793.50;4811317;29;20059;-79
2024/02/08 03:34:16;;;;;;;10.77;6.30;;;;;;;2.50;100.00;91790.16;4814658;29;20099;-81
2024/02/08 03:36:44;;;;;;;9.35;5.50;;;;;;;2.48;100.00;91781.09;4812792;29;20035;-79
2024/02/08 03:39:20;;;;;;;9.15;5.15;;;;;;;2.50;100.00;91789.38;4814179;29;20042;-80
2024/02/08 03:41:46;;;;;;;9.85;5.95;;;;;;;2.49;100.00;91792.97;4812409;29;20123;-78
2024/02/08 03:44:12;;;;;;;11.70;6.50;;;;;;;2.49;100.00;91777.47;4813601;29;20035;-79
2024/02/08 03:46:38;;;;;;;8.13;5.50;;;;;;;2.48;100.00;91775.94;4797044;29;20039;-80
2024/02/08 03:49:08;;;;;;;10.85;5.68;;;;;;;2.44;100.00;91774.88;4792461;29;20111;-81
2024/02/08 03:51:37;;;;;;;11.07;5.85;;;;;;;2.41;100.00;91780.53;4809999;29;20058;-79
2024/02/08 03:54:03;;;;;;;10.88;6.07;;;;;;;2.45;100.00;91789.34;4812318;29;20054;-79
2024/02/08 03:56:36;;;;;;;9.85;5.60;;;;;;;2.45;100.00;91787.53;4812988;29;20043;-79
2024/02/08 03:59:12;;;;;;;8.73;5.57;;;;;;;2.45;100.00;91784.16;4804337;29;20070;-78
2024/02/08 04:01:43;;;;;;;9.18;5.57;;;;;;;2.41;100.00;91783.13;4810789;29;20107;-80
2024/02/08 04:04:13;;;;;;;11.00;6.00;;;;;;;2.47;100.00;91789.88;4812911;29;20046;-80
2024/02/08 04:09:36;;;;;;;10.60;5.93;;;;;;;2.46;100.00;91796.84;4813439;29;20107;-80
2024/02/08 04:55:58;;;;;;;7.38;4.20;;;;;;;2.25;100.00;91777.91;4806001;29;20053;-79
2024/02/08 04:58:23;;;;;;;5.97;4.10;;;;;;;2.23;100.00;91774.81;4819521;29;20035;-79
2024/02/08 05:00:49;;;;;;;7.53;4.60;;;;;;;2.21;100.00;91770.94;4811773;29;20091;-80
2024/02/08 05:03:17;;;;;;;9.60;4.35;;;;;;;2.16;100.00;91763.13;4810766;29;20129;-80
2024/02/08 05:05:46;;;;;;;10.13;4.18;;;;;;;2.23;100.00;91774.81;4812189;29;20031;-80
2024/02/08 05:08:12;;;;;;;10.23;4.65;;;;;;;2.25;100.00;91764.19;4810692;29;20064;-80
2024/02/08 05:10:38;;;;;;;8.70;4.38;;;;;;;2.25;100.00;91761.63;4795666;29;20072;-80
2024/02/08 05:13:04;;;;;;;6.72;4.18;;;;;;;2.29;100.00;91767.84;4810731;29;20055;-80
2024/02/08 05:15:30;;;;;;;6.63;4.15;;;;;;;2.17;100.00;91749.97;4811574;29;20102;-79
2024/02/08 05:17:57;;;;;;;8.68;4.65;;;;;;;2.29;100.00;91773.00;4795862;29;20054;-78
2024/02/08 05:20:22;;;;;;;6.93;4.20;;;;;;;2.29;100.00;91762.69;4811126;29;20059;-79
2024/02/08 05:22:48;;;;;;;7.03;4.25;;;;;;;2.31;100.00;91770.19;4810524;29;20408;-79
2024/02/08 05:25:15;;;;;;;7.97;4.00;;;;;;;2.28;100.00;91766.31;4810919;29;20037;-79
2024/02/08 05:27:40;;;;;;;7.80;4.47;;;;;;;2.21;100.00;91758.78;4780189;29;20070;-78
2024/02/08 05:30:07;;;;;;;6.45;4.10;;;;;;;2.26;100.00;91769.13;4818225;29;20039;-79
2024/02/08 05:32:35;;;;;;;7.20;3.70;;;;;;;2.25;100.00;91777.13;4809664;29;20534;-79
2024/02/08 05:35:04;;;;;;;6.57;3.70;;;;;;;2.24;100.00;91776.34;4809634;29;20050;-79
2024/02/08 05:37:29;;;;;;;7.47;3.85;;;;;;;2.23;100.00;91779.16;4809598;29;20050;-80
2024/02/08 05:39:55;;;;;;;6.63;3.75;;;;;;;2.22;100.00;91768.06;4795913;29;20116;-79
2024/02/08 05:42:24;;;;;;;5.47;3.60;;;;;;;2.19;100.00;91768.59;4814549;29;20416;-78
2024/02/08 05:45:12;;;;;;;6.78;3.67;;;;;;;2.16;100.00;91769.09;4787045;29;20511;-79
2024/02/08 05:47:38;;;;;;;9.05;3.97;;;;;;;2.17;100.00;91770.63;4809269;29;20066;-79
2024/02/08 05:50:06;;;;;;;5.32;3.53;;;;;;;2.17;100.00;91760.31;4807402;29;20576;-78
2024/02/08 05:52:33;;;;;;;6.28;3.80;;;;;;;2.16;100.00;91763.13;4803213;29;20639;-80
2024/02/08 05:54:58;;;;;;;9.10;4.18;;;;;;;2.16;100.00;91770.88;4785307;29;20049;-79
2024/02/08 05:57:24;;;;;;;9.88;3.97;;;;;;;2.16;100.00;91769.09;4802759;29;20035;-79
2024/02/08 05:59:54;;;;;;;6.95;4.00;;;;;;;2.14;100.00;91766.00;4806613;29;20072;-79
2024/02/08 06:02:23;;;;;;;6.63;3.90;;;;;;;2.17;100.00;91772.44;4794593;29;20137;-80
2024/02/08 06:04:59;;;;;;;6.13;3.67;;;;;;;2.16;100.00;91768.31;4807835;29;20035;-81
2024/02/08 06:07:29;;;;;;;8.25;4.00;;;;;;;2.09;100.00;91760.78;4791877;29;20047;-79
2024/02/08 06:10:07;;;;;;;6.53;3.90;;;;;;;2.13;100.00;91768.81;4811359;29;20051;-81
2024/02/08 06:12:51;;;;;;;7.32;3.95;;;;;;;2.12;100.00;91772.41;4814288;29;20062;-80
2024/02/08 06:15:35;;;;;;;7.28;3.88;;;;;;;2.06;100.00;91769.03;4816443;29;20047;-81
2024/02/08 06:18:04;;;;;;;6.72;3.97;;;;;;;2.01;100.00;91763.84;4810818;29;20039;-80
2024/02/08 06:20:33;;;;;;;7.63;4.10;;;;;;;2.07;100.00;91773.16;4816697;29;20053;-79
2024/02/08 06:23:16;;;;;;;6.15;3.70;;;;;;;2.03;100.00;91774.72;4814205;29;20499;-80
2024/02/08 06:26:09;;;;;;;7.57;4.00;;;;;;;1.97;100.00;91780.88;4814358;29;20539;-79
2024/02/08 06:28:33;;;;;;;5.93;3.60;;;;;;;2.01;100.00;91776.75;4813640;29;20138;-81
2024/02/08 06:31:06;;;;;;;9.95;4.28;;;;;;;2.02;100.00;91778.31;4810387;29;20047;-79
2024/02/08 06:34:09;;;;;;;;;;;;;;;1.99;100.00;91777.00;4813302;29;20038;-81
2024/02/08 06:36:33;;;;;;;7.95;4.05;;;;;;;2.05;100.00;91791.50;4810129;29;19935;-81
2024/02/08 06:39:20;;;;;;;8.35;4.05;;;;;;;2.07;100.00;91799.78;4809789;29;20046;-82
2024/02/08 06:41:52;;;;;;;7.22;4.35;;;;;;;2.08;100.00;91803.91;4811168;29;20059;-82
2024/02/08 07:41:54;;;;;;;6.15;3.60;;;;;;;10.74;93.13;91809.63;4808181;29;20070;-83
2024/02/08 07:44:22;;;;;;;6.68;3.60;;;;;;;11.41;88.75;91817.16;4808975;29;20047;-82
2024/02/08 07:46:54;;;;;;;5.45;3.40;;;;;;;11.62;76.85;91825.22;4808277;29;20031;-81
2024/02/08 07:49:29;;;;;;;5.97;3.23;;;;;;;11.64;79.00;91832.75;4808649;29;20062;-81
2024/02/08 07:51:58;;;;;;;9.32;3.88;;;;;;;11.56;78.67;91836.16;4805924;29;20078;-82
2024/02/08 07:54:24;;;;;;;5.53;3.35;;;;;;;11.48;78.46;91829.06;4807689;29;20062;-82
2024/02/08 07:56:53;;;;;;;5.15;3.40;;;;;;;11.40;78.70;91831.34;4798745;29;20039;-82
2024/02/08 07:59:26;;;;;;;5.93;3.63;;;;;;;11.74;77.05;91836.94;4807962;29;20516;-82
2024/02/08 08:01:53;;;;;;;6.10;3.67;;;;;;;12.10;74.12;91839.25;4807008;29;20118;-79
2024/02/08 08:07:22;;;;;;;6.93;3.58;;;;;;;12.71;67.48;91842.50;4778617;29;20122;-82
2024/02/08 08:09:59;;;;;;;5.18;3.40;;;;;;;12.81;65.80;91841.41;4807818;29;20111;-83
2024/02/08 08:12:29;;;;;;;5.65;3.42;;;;;;;12.56;64.66;91829.91;4805918;29;20117;-83
2024/02/08 08:19:52;;;;;;;6.65;3.33;;;;;;;14.19;63.26;91848.78;4792218;29;20283;-83
2024/02/08 08:25:59;;;;;;;5.77;2.87;;;;;;;13.63;60.26;91858.81;4803664;29;20318;-83
2024/02/08 08:27:50;;;;;;;7.22;2.95;;;;;;;14.59;57.93;91864.09;4798822;29;20378;-81
2024/02/08 08:30:38;;;;;;;5.65;3.35;;;;;;;15.05;54.92;91850.88;4808169;29;20046;-80
2024/02/08 08:35:47;;;;;;;6.47;3.50;;;;;;;13.87;58.02;91858.16;4808029;29;20043;-81
2024/02/08 08:40:49;;;;;;;9.52;3.35;;;;;;;12.87;61.88;91855.13;4808439;29;20423;-81
2024/02/08 08:43:19;;;;;;;6.82;3.10;;;;;;;12.60;65.26;91843.94;4815055;29;20403;-83
2024/02/08 08:46:01;;;;;;;6.43;3.42;;;;;;;11.74;68.00;91842.19;4807024;29;20055;-82
2024/02/08 08:48:31;;;;;;;9.63;3.80;;;;;;;11.69;75.11;91861.47;4793418;29;20511;-83
2024/02/08 08:50:58;;;;;;;5.28;3.08;;;;;;;11.92;71.52;91856.88;4809089;29;20054;-82
2024/02/08 08:53:28;;;;;;;7.10;4.10;;;;;;;11.90;76.02;91858.25;4805982;29;20076;-82
2024/02/08 08:55:55;;;;;;;7.13;3.90;;;;;;;11.54;72.27;91861.91;4807466;29;20046;-82
2024/02/08 08:58:27;;;;;;;5.90;3.85;;;;;;;11.72;73.13;91866.09;4807966;29;20070;-82
2024/02/08 09:01:11;;;;;;;;;;;;;;;11.63;73.72;91870.53;4800083;29;20049;-82
2024/02/08 09:03:40;;;;;;;7.97;4.43;;;;;;;11.73;73.64;91846.66;4805861;29;20381;-82
2024/02/08 09:06:12;;;;;;;7.85;4.68;;;;;;;11.14;74.45;91846.25;4809324;29;20113;-83
2024/02/08 09:08:54;;;;;;;8.68;4.10;;;;;;;10.24;81.88;91854.31;4808491;29;20046;-82
2024/02/08 09:11:24;;;;;;;7.40;4.38;;;;;;;9.84;85.87;91848.94;4810494;29;20117;-81
2024/02/08 09:13:54;;;;;;;6.90;4.32;;;;;;;10.24;85.47;91843.84;4816860;29;20027;-82
2024/02/08 09:21:35;;;;;;;7.32;4.60;;;;;;;9.78;86.06;91856.91;4807809;29;20045;-81
2024/02/08 09:24:05;;;;;;;7.88;5.55;;;;;;;9.96;84.17;91857.06;4806564;29;20084;-82
2024/02/08 09:29:23;;;;;;;9.18;4.68;;;;;;;10.16;85.21;91847.97;4792503;29;20647;-81
2024/02/08 09:34:53;;;;;;;10.52;4.65;;;;;;;10.31;83.70;91852.06;4806828;29;20354;-80
2024/02/08 09:37:18;;;;;;;7.30;4.03;;;;;;;10.29;86.36;91848.97;4793757;29;20404;-82
2024/02/08 09:39:53;;;;;;;7.45;3.95;;;;;;;10.14;85.64;91856.09;4809704;29;20043;-82
2024/02/08 09:42:29;;;;;;;6.47;3.78;;;;;;;10.33;86.55;91857.78;4809886;29;20050;-81
2024/02/08 09:45:42;;;;;;;7.40;4.30;;;;;;;10.17;86.14;91855.50;4805780;29;20027;-81
2024/02/08 09:48:06;;;;;;;11.05;4.80;;;;;;;9.41;91.96;91841.53;4806040;29;20191;-81
2024/02/08 09:50:47;;;;;;;8.73;3.90;;;;;;;9.32;93.21;91850.09;4808706;29;20039;-81
2024/02/08 09:53:19;;;;;;;10.27;5.28;;;;;;;9.82;92.86;91856.31;4793875;29;20535;-81
2024/02/08 09:55:55;;;;;;;6.93;4.90;;;;;;;9.94;87.13;91859.19;4807718;29;20047;-81
2024/02/08 09:58:33;;;;;;;9.73;4.55;;;;;;;10.30;86.52;91855.75;4794186;29;20047;-82
2024/02/08 10:01:21;;;;;;;8.77;4.72;;;;;;;10.37;84.98;91854.25;4802437;29;20043;-81
2024/02/08 10:04:07;;;;;;;8.85;4.50;;;;;;;10.30;88.78;91874.06;4779946;29;20154;-80
2024/02/08 10:06:56;;;;;;;7.38;4.82;;;;;;;9.63;90.43;91875.53;4796673;29;20043;-80
2024/02/08 10:09:46;;;;;;;7.13;4.40;;;;;;;9.42;92.23;91879.66;4796267;29;20495;-81
2024/02/08 10:12:20;;;;;;;6.97;3.90;;;;;;;9.49;90.87;91875.59;4807207;29;20043;-82
2024/02/08 10:14:50;;;;;;;7.47;4.10;;;;;;;9.49;94.49;91888.66;4807411;29;20053;-81
2024/02/08 10:17:24;;;;;;;9.45;4.13;;;;;;;10.10;89.04;91883.91;4787149;29;20104;-81
2024/02/08 10:23:09;;;;;;;7.30;4.65;;;;;;;10.71;83.19;91891.38;4804574;29;20043;-82
2024/02/08 10:28:25;;;;;;;7.57;4.47;;;;;;;10.17;87.51;91884.25;4799836;29;20082;-78
2024/02/08 10:30:57;;;;;;;10.68;5.70;;;;;;;10.29;89.47;91880.38;4799976;29;20043;-78
2024/02/08 10:33:24;;;;;;;7.72;4.90;;;;;;;10.35;88.21;91871.31;4804113;29;20042;-80
2024/02/08 10:35:53;;;;;;;10.30;5.28;;;;;;;10.16;90.20;91863.66;4802907;29;20037;-77
2024/02/08 10:38:30;;;;;;;6.68;3.15;;;;;;;10.14;88.91;91861.31;4804259;29;20047;-78
2024/02/08 10:40:59;;;;;;;9.02;4.22;;;;;;;10.00;92.29;91858.00;4796888;29;20043;-77
2024/02/08 10:43:25;;;;;;;7.15;4.90;;;;;;;10.29;91.47;91854.19;4788096;29;20087;-78
2024/02/08 10:46:02;;;;;;;7.88;4.75;;;;;;;10.51;89.27;91850.78;4801469;29;20039;-77
2024/02/08 10:48:30;;;;;;;8.65;5.20;;;;;;;10.73;87.77;91844.72;4809782;29;20043;-78
2024/02/08 10:51:02;;;;;;;9.60;4.85;;;;;;;10.85;85.89;91842.31;4803872;29;20035;-78
2024/02/08 10:53:48;;;;;;;7.00;4.45;;;;;;;10.67;83.89;91848.56;4804749;29;20043;-77
2024/02/08 10:56:17;;;;;;;7.25;4.65;;;;;;;10.68;85.69;91840.41;4804188;29;20051;-78
2024/02/08 10:59:38;;;;;;;8.50;5.22;;;;;;;10.20;87.62;91825.38;4802235;29;20061;-77
2024/02/08 11:04:18;;;;;;;9.98;5.93;;;;;;;9.52;98.14;91811.50;4808210;29;20061;-78
2024/02/08 11:06:54;;;;;;;8.13;5.40;;;;;;;9.23;99.77;91814.50;4792275;29;20584;-77
2024/02/08 11:09:21;;;;;;;6.82;4.00;;;;;;;9.01;100.00;91817.84;4807841;29;20043;-77
2024/02/08 11:12:29;;;;;;;11.15;5.68;;;;;;;8.86;100.00;91811.84;4807833;29;20043;-76
2024/02/08 11:14:58;;;;;;;9.00;5.18;;;;;;;8.86;100.00;91790.94;4798151;29;20099;-78
2024/02/08 11:17:26;;;;;;;9.55;5.80;;;;;;;8.88;100.00;91808.94;4801903;29;20491;-75
2024/02/08 11:19:56;;;;;;;9.02;5.65;;;;;;;8.96;100.00;91809.03;4815531;29;20038;-77
2024/02/08 11:22:39;;;;;;;8.18;5.40;;;;;;;8.86;100.00;91814.44;4794971;29;20070;-77
2024/02/08 11:25:19;;;;;;;9.48;6.20;;;;;;;8.90;100.00;91825.09;4804281;29;20125;-76
2024/02/08 11:27:52;;;;;;;9.30;5.32;;;;;;;9.05;100.00;91824.00;4805834;29;20062;-78
2024/02/08 11:30:32;;;;;;;8.05;5.30;;;;;;;9.07;100.00;91814.03;4806644;29;20038;-76
2024/02/08 11:33:04;;;;;;;10.15;5.38;;;;;;;9.14;100.00;91822.25;4787264;29;20051;-78
2024/02/08 11:35:45;;;;;;;11.85;5.50;;;;;;;9.28;100.00;91827.47;4806422;29;20050;-79
2024/02/08 11:38:28;;;;;;;14.48;6.10;;;;;;;9.26;100.00;91806.84;4806171;29;20085;-77
2024/02/08 11:40:57;;;;;;;10.55;5.25;;;;;;;9.42;100.00;91811.75;4806336;29;20031;-78
2024/02/08 11:43:24;;;;;;;7.65;4.93;;;;;;;9.41;100.00;91810.19;4806396;29;20042;-78
2024/02/08 11:45:54;;;;;;;10.70;5.05;;;;;;;9.29;100.00;91806.25;4799426;29;20104;-77
2024/02/08 11:48:27;;;;;;;8.82;4.97;;;;;;;9.32;100.00;91808.28;4806224;29;20041;-76
2024/02/08 11:51:00;;;;;;;10.88;5.28;;;;;;;9.53;100.00;91808.63;4798413;29;20038;-77
2024/02/08 11:53:31;;;;;;;9.32;5.15;;;;;;;9.54;100.00;91793.69;4804566;29;20035;-78
2024/02/08 11:56:29;;;;;;;8.48;5.43;;;;;;;9.60;99.77;91800.38;4799849;29;20043;-79
2024/02/08 11:58:55;;;;;;;11.05;5.28;;;;;;;9.45;100.00;91796.25;4790112;29;20313;-78
2024/02/08 12:01:25;;;;;;;9.98;5.10;;;;;;;9.51;100.00;91794.31;4805880;29;20099;-78
2024/02/08 12:03:53;;;;;;;8.48;5.47;;;;;;;9.54;100.00;91791.09;4805928;29;20042;-76
2024/02/08 12:06:26;;;;;;;8.07;5.22;;;;;;;9.65;98.39;91791.63;4806267;29;20019;-78
2024/02/08 12:08:59;;;;;;;9.48;4.82;;;;;;;9.58;98.83;91794.66;4804271;29;20500;-77
2024/02/08 12:11:29;;;;;;;8.32;4.90;;;;;;;9.57;98.49;91788.66;4805591;29;20126;-76
2024/02/08 12:14:04;;;;;;;7.03;4.65;;;;;;;9.40;100.00;91787.75;4801453;29;20035;-76
2024/02/08 12:16:30;;;;;;;7.50;4.63;;;;;;;9.21;100.00;91790.50;4800239;29;20051;-78
2024/02/08 12:19:05;;;;;;;8.57;5.28;;;;;;;8.90;100.00;91791.16;4801865;29;20045;-77
2024/02/08 12:21:35;;;;;;;11.57;5.18;;;;;;;8.96;100.00;91790.75;4803319;29;20053;-78
2024/02/08 12:24:01;;;;;;;9.93;5.30;;;;;;;8.72;100.00;91790.97;4799766;29;20162;-76
2024/02/08 12:26:33;;;;;;;9.05;5.15;;;;;;;8.73;100.00;91791.75;4811684;29;20399;-76
2024/02/08 12:29:03;;;;;;;9.68;5.32;;;;;;;8.90;100.00;91791.16;4807937;29;20035;-76
2024/02/08 12:31:32;;;;;;;7.82;5.00;;;;;;;8.90;100.00;91791.16;4814062;29;20067;-77
2024/02/08 12:34:03;;;;;;;10.27;6.00;;;;;;;8.80;100.00;91789.50;4814712;29;20037;-76
2024/02/08 12:36:31;;;;;;;9.35;5.43;;;;;;;8.80;100.00;91786.91;4812721;29;20043;-78
2024/02/08 12:39:00;;;;;;;8.07;4.50;;;;;;;8.79;100.00;91782.75;4814236;29;20062;-77
2024/02/08 12:41:29;;;;;;;8.73;5.43;;;;;;;8.85;100.00;91768.53;4811227;29;20067;-77
2024/02/08 12:43:57;;;;;;;8.80;5.35;;;;;;;9.00;100.00;91769.28;4804232;29;20121;-76
2024/02/08 12:46:22;;;;;;;7.63;4.93;;;;;;;8.76;100.00;91759.84;4802744;29;20445;-77
2024/02/08 12:48:49;;;;;;;13.27;5.60;;;;;;;8.84;100.00;91753.94;4803410;29;20037;-77
2024/02/08 12:51:23;;;;;;;8.80;4.97;;;;;;;8.94;100.00;91745.13;4802604;29;20080;-77
2024/02/08 12:54:02;;;;;;;9.18;5.82;;;;;;;8.75;100.00;91748.63;4802701;29;20042;-77
2024/02/08 12:56:27;;;;;;;8.38;5.53;;;;;;;8.68;100.00;91737.81;4803399;29;20049;-77
2024/02/08 12:59:03;;;;;;;10.88;5.78;;;;;;;8.75;100.00;91737.41;4803945;29;20042;-77
2024/02/08 13:01:41;;;;;;;9.15;5.55;;;;;;;8.77;100.00;91724.84;4802345;29;20043;-78
2024/02/08 13:04:07;;;;;;;7.70;4.60;;;;;;;8.75;100.00;91721.75;4803674;29;20054;-77
2024/02/08 13:06:34;;;;;;;8.77;5.57;;;;;;;8.67;100.00;91719.84;4803037;29;20027;-77
2024/02/08 13:11:48;;;;;;;7.95;4.65;;;;;;;8.79;100.00;91712.28;4803708;29;20617;-79
2024/02/08 13:14:18;;;;;;;10.73;5.95;;;;;;;8.75;100.00;91701.66;4805214;29;20035;-78
2024/02/08 13:16:44;;;;;;;10.77;5.20;;;;;;;8.65;100.00;91716.78;4805409;29;20445;-77
2024/02/08 13:19:13;;;;;;;11.25;5.60;;;;;;;8.52;100.00;91719.09;4805229;29;20129;-78
2024/02/08 13:21:45;;;;;;;8.95;5.00;;;;;;;8.36;100.00;91714.44;4803140;29;20035;-78
2024/02/08 13:24:10;;;;;;;8.80;5.70;;;;;;;8.48;100.00;91715.50;4805480;29;20130;-78
2024/02/08 13:26:36;;;;;;;9.30;5.10;;;;;;;8.57;100.00;91717.44;4804880;29;20062;-79
2024/02/08 13:29:03;;;;;;;10.98;5.38;;;;;;;8.39;100.00;91714.63;4802709;29;20062;-78
2024/02/08 13:31:29;;;;;;;9.25;5.80;;;;;;;8.34;100.00;91714.72;4805884;29;20069;-79
2024/02/08 13:33:55;;;;;;;11.27;5.38;;;;;;;8.34;100.00;91707.66;4805532;29;20527;-79
2024/02/08 13:36:25;;;;;;;10.70;5.60;;;;;;;8.36;100.00;91717.81;4803453;29;20051;-78
2024/02/08 13:38:51;;;;;;;9.18;5.72;;;;;;;8.45;100.00;91721.31;4795226;29;20050;-78
2024/02/08 13:41:17;;;;;;;7.68;5.35;;;;;;;8.58;100.00;91722.38;4803302;29;20061;-78
2024/02/08 13:43:45;;;;;;;9.88;5.50;;;;;;;8.78;100.00;91723.81;4804353;29;20043;-78
2024/02/08 13:46:13;;;;;;;10.00;5.53;;;;;;;8.43;100.00;91720.06;4803364;29;20468;-78
2024/02/08 13:48:39;;;;;;;11.95;5.75;;;;;;;8.31;100.00;91715.31;4804056;29;20500;-77
2024/02/08 13:51:07;;;;;;;9.07;5.70;;;;;;;8.29;100.00;91726.03;4804951;29;20054;-78
2024/02/08 13:53:35;;;;;;;11.02;5.82;;;;;;;8.47;100.00;91724.41;4804591;29;20110;-77
2024/02/08 13:56:05;;;;;;;8.90;5.18;;;;;;;8.43;100.00;91730.50;4804510;29;20483;-78
2024/02/08 13:58:37;;;;;;;13.05;5.53;;;;;;;8.29;100.00;91740.91;4789778;29;20042;-77
2024/02/08 14:01:04;;;;;;;10.18;6.43;;;;;;;8.43;100.00;91746.91;4803281;29;20054;-79
2024/02/08 14:03:30;;;;;;;11.75;6.55;;;;;;;8.44;100.00;91739.88;4803314;29;20407;-78
2024/02/08 14:05:55;;;;;;;9.73;5.50;;;;;;;8.45;100.00;91742.19;4804444;29;20068;-78
2024/02/08 14:08:23;;;;;;;10.40;6.43;;;;;;;8.36;100.00;91745.75;4804319;29;20103;-79
2024/02/08 14:10:49;;;;;;;11.45;6.20;;;;;;;8.32;100.00;91735.09;4803787;29;20121;-77